sensor_id;sensor_type;location;lat;lon;timestamp;pressure;altitude;pressure_sealevel;temperature;humidity
51239;BME280;38154;47.548;18.828;2022-12-29T00:01:19;99342.69;;;0.88;100.00
51239;BME280;38154;47.548;18.828;2022-12-29T00:03:46;99349.59;;;0.89;100.00
51239;BME280;38154;47.548;18.828;2022-12-29T00:06:12;99343.50;;;0.87;100.00
51239;BME280;38154;47.548;18.828;2022-12-29T00:08:38;99339.09;;;0.85;100.00
51239;BME280;38154;47.548;18.828;2022-12-29T00:11:08;99338.22;;;0.84;100.00
51239;BME280;38154;47.548;18.828;2022-12-29T00:13:35;99339.97;;;0.85;100.00
51239;BME280;38154;47.548;18.828;2022-12-29T00:16:19;99331.63;;;0.89;100.00
51239;BME280;38154;47.548;18.828;2022-12-29T00:18:45;99337.09;;;0.97;100.00
51239;BME280;38154;47.548;18.828;2022-12-29T00:21:15;99340.72;;;1.01;100.00
51239;BME280;38154;47.548;18.828;2022-12-29T00:24:00;99339.34;;;1.07;100.00
51239;BME280;38154;47.548;18.828;2022-12-29T00:26:58;99336.84;;;1.09;100.00
51239;BME280;38154;47.548;18.828;2022-12-29T00:29:48;99342.78;;;1.08;100.00
51239;BME280;38154;47.548;18.828;2022-12-29T00:32:33;99334.75;;;1.02;100.00
51239;BME280;38154;47.548;18.828;2022-12-29T00:35:29;99326.03;;;0.98;100.00
51239;BME280;38154;47.548;18.828;2022-12-29T00:37:57;99331.41;;;1.03;100.00
51239;BME280;38154;47.548;18.828;2022-12-29T00:40:43;99324.56;;;1.03;100.00
51239;BME280;38154;47.548;18.828;2022-12-29T00:43:27;99323.25;;;0.93;100.00
51239;BME280;38154;47.548;18.828;2022-12-29T00:46:12;99315.34;;;0.89;100.00
51239;BME280;38154;47.548;18.828;2022-12-29T00:48:38;99326.47;;;0.89;100.00
51239;BME280;38154;47.548;18.828;2022-12-29T00:51:22;99324.63;;;0.87;100.00
51239;BME280;38154;47.548;18.828;2022-12-29T00:53:49;99328.59;;;0.80;100.00
51239;BME280;38154;47.548;18.828;2022-12-29T00:56:15;99319.94;;;0.78;100.00
51239;BME280;38154;47.548;18.828;2022-12-29T00:58:41;99322.34;;;0.75;100.00
51239;BME280;38154;47.548;18.828;2022-12-29T01:01:08;99306.00;;;0.73;100.00
51239;BME280;38154;47.548;18.828;2022-12-29T01:03:36;99305.06;;;0.71;100.00
51239;BME280;38154;47.548;18.828;2022-12-29T01:06:09;99309.31;;;0.70;100.00
51239;BME280;38154;47.548;18.828;2022-12-29T01:08:36;99314.56;;;0.73;100.00
51239;BME280;38154;47.548;18.828;2022-12-29T01:11:12;99310.34;;;0.74;100.00
51239;BME280;38154;47.548;18.828;2022-12-29T01:13:39;99319.59;;;0.70;100.00
51239;BME280;38154;47.548;18.828;2022-12-29T01:16:07;99320.59;;;0.74;100.00
51239;BME280;38154;47.548;18.828;2022-12-29T01:18:33;99323.00;;;0.71;100.00
51239;BME280;38154;47.548;18.828;2022-12-29T01:21:04;99328.31;;;0.74;100.00
51239;BME280;38154;47.548;18.828;2022-12-29T01:23:30;99319.69;;;0.73;100.00
51239;BME280;38154;47.548;18.828;2022-12-29T01:25:56;99325.06;;;0.78;100.00
51239;BME280;38154;47.548;18.828;2022-12-29T01:28:23;99335.09;;;0.73;100.00
51239;BME280;38154;47.548;18.828;2022-12-29T01:30:49;99336.63;;;0.70;100.00
51239;BME280;38154;47.548;18.828;2022-12-29T01:33:15;99334.97;;;0.70;100.00
51239;BME280;38154;47.548;18.828;2022-12-29T01:35:41;99330.19;;;0.78;100.00
51239;BME280;38154;47.548;18.828;2022-12-29T01:38:07;99327.78;;;0.81;100.00
51239;BME280;38154;47.548;18.828;2022-12-29T01:40:33;99324.28;;;0.79;100.00
51239;BME280;38154;47.548;18.828;2022-12-29T01:42:59;99337.91;;;0.78;100.00
51239;BME280;38154;47.548;18.828;2022-12-29T01:45:25;99332.84;;;0.80;100.00
51239;BME280;38154;47.548;18.828;2022-12-29T01:47:59;99320.09;;;0.81;100.00
51239;BME280;38154;47.548;18.828;2022-12-29T01:50:32;99313.94;;;0.78;100.00
51239;BME280;38154;47.548;18.828;2022-12-29T01:53:02;99314.72;;;0.77;100.00
51239;BME280;38154;47.548;18.828;2022-12-29T01:55:31;99312.47;;;0.83;100.00
51239;BME280;38154;47.548;18.828;2022-12-29T01:58:01;99312.63;;;0.86;100.00
51239;BME280;38154;47.548;18.828;2022-12-29T02:00:29;99309.22;;;0.87;100.00
51239;BME280;38154;47.548;18.828;2022-12-29T02:02:54;99302.63;;;0.92;100.00
51239;BME280;38154;47.548;18.828;2022-12-29T02:05:45;99295.53;;;0.86;100.00
51239;BME280;38154;47.548;18.828;2022-12-29T02:08:12;99299.19;;;0.91;100.00
51239;BME280;38154;47.548;18.828;2022-12-29T02:10:40;99298.09;;;0.86;100.00
51239;BME280;38154;47.548;18.828;2022-12-29T02:13:06;99286.13;;;0.87;100.00
51239;BME280;38154;47.548;18.828;2022-12-29T02:15:54;99279.44;;;0.90;100.00
51239;BME280;38154;47.548;18.828;2022-12-29T02:32:08;99260.22;;;1.00;100.00
51239;BME280;38154;47.548;18.828;2022-12-29T02:37:20;99254.37;;;1.03;100.00
51239;BME280;38154;47.548;18.828;2022-12-29T02:43:04;99261.16;;;1.20;100.00
51239;BME280;38154;47.548;18.828;2022-12-29T02:45:42;99259.25;;;1.34;100.00
51239;BME280;38154;47.548;18.828;2022-12-29T02:50:59;99251.06;;;1.43;100.00
51239;BME280;38154;47.548;18.828;2022-12-29T02:53:27;99249.66;;;1.50;100.00
51239;BME280;38154;47.548;18.828;2022-12-29T02:56:13;99246.19;;;1.49;100.00
51239;BME280;38154;47.548;18.828;2022-12-29T02:58:38;99250.53;;;1.50;100.00
51239;BME280;38154;47.548;18.828;2022-12-29T03:01:21;99252.81;;;1.44;100.00
51239;BME280;38154;47.548;18.828;2022-12-29T03:07:02;99249.03;;;1.55;100.00
51239;BME280;38154;47.548;18.828;2022-12-29T03:12:26;99248.03;;;1.71;100.00
51239;BME280;38154;47.548;18.828;2022-12-29T03:15:22;99240.31;;;1.71;100.00
51239;BME280;38154;47.548;18.828;2022-12-29T03:18:22;99231.78;;;1.72;100.00
51239;BME280;38154;47.548;18.828;2022-12-29T03:24:17;99228.69;;;1.79;100.00
51239;BME280;38154;47.548;18.828;2022-12-29T03:26:46;99225.78;;;1.72;100.00
51239;BME280;38154;47.548;18.828;2022-12-29T03:29:14;99225.09;;;1.76;100.00
51239;BME280;38154;47.548;18.828;2022-12-29T03:31:42;99215.87;;;1.81;100.00
51239;BME280;38154;47.548;18.828;2022-12-29T03:34:09;99217.56;;;1.80;100.00
51239;BME280;38154;47.548;18.828;2022-12-29T03:36:47;99210.72;;;1.81;100.00
51239;BME280;38154;47.548;18.828;2022-12-29T03:39:17;99209.06;;;1.81;100.00
51239;BME280;38154;47.548;18.828;2022-12-29T03:41:45;99206.88;;;1.91;100.00
51239;BME280;38154;47.548;18.828;2022-12-29T03:44:11;99208.84;;;1.96;100.00
51239;BME280;38154;47.548;18.828;2022-12-29T03:46:38;99213.09;;;1.96;100.00
51239;BME280;38154;47.548;18.828;2022-12-29T03:49:04;99220.72;;;1.94;100.00
51239;BME280;38154;47.548;18.828;2022-12-29T03:51:29;99208.22;;;2.02;100.00
51239;BME280;38154;47.548;18.828;2022-12-29T03:53:55;99201.13;;;1.96;100.00
51239;BME280;38154;47.548;18.828;2022-12-29T03:56:21;99202.06;;;1.98;100.00
51239;BME280;38154;47.548;18.828;2022-12-29T03:58:47;99201.06;;;1.95;100.00
51239;BME280;38154;47.548;18.828;2022-12-29T04:01:13;99211.88;;;1.88;100.00
51239;BME280;38154;47.548;18.828;2022-12-29T04:03:39;99214.88;;;1.77;100.00
51239;BME280;38154;47.548;18.828;2022-12-29T04:06:05;99221.03;;;1.61;100.00
51239;BME280;38154;47.548;18.828;2022-12-29T04:08:31;99221.81;;;1.21;100.00
51239;BME280;38154;47.548;18.828;2022-12-29T04:10:57;99210.59;;;0.82;100.00
51239;BME280;38154;47.548;18.828;2022-12-29T04:13:22;99212.81;;;0.56;100.00
51239;BME280;38154;47.548;18.828;2022-12-29T04:15:48;99213.53;;;0.35;100.00
51239;BME280;38154;47.548;18.828;2022-12-29T04:18:14;99214.00;;;0.10;100.00
51239;BME280;38154;47.548;18.828;2022-12-29T04:20:41;99217.38;;;-0.07;100.00
51239;BME280;38154;47.548;18.828;2022-12-29T04:23:31;99217.56;;;-0.21;100.00
51239;BME280;38154;47.548;18.828;2022-12-29T04:25:57;99207.91;;;-0.43;100.00
51239;BME280;38154;47.548;18.828;2022-12-29T04:28:23;99210.63;;;-0.56;100.00
51239;BME280;38154;47.548;18.828;2022-12-29T04:30:49;99212.94;;;-0.61;100.00
51239;BME280;38154;47.548;18.828;2022-12-29T04:33:15;99216.87;;;-0.67;100.00
51239;BME280;38154;47.548;18.828;2022-12-29T04:35:42;99208.97;;;-0.72;100.00
51239;BME280;38154;47.548;18.828;2022-12-29T04:38:09;99207.87;;;-0.76;100.00
51239;BME280;38154;47.548;18.828;2022-12-29T04:40:35;99202.88;;;-0.41;100.00
51239;BME280;38154;47.548;18.828;2022-12-29T04:43:03;99207.38;;;-0.03;100.00
51239;BME280;38154;47.548;18.828;2022-12-29T04:45:29;99206.19;;;0.43;100.00
51239;BME280;38154;47.548;18.828;2022-12-29T04:47:54;99205.22;;;0.77;100.00
51239;BME280;38154;47.548;18.828;2022-12-29T04:50:21;99209.97;;;1.05;100.00
51239;BME280;38154;47.548;18.828;2022-12-29T04:52:46;99214.78;;;1.17;100.00
51239;BME280;38154;47.548;18.828;2022-12-29T04:55:12;99215.75;;;1.39;100.00
51239;BME280;38154;47.548;18.828;2022-12-29T04:57:38;99211.25;;;1.53;100.00
51239;BME280;38154;47.548;18.828;2022-12-29T05:00:05;99215.34;;;1.69;100.00
51239;BME280;38154;47.548;18.828;2022-12-29T05:02:31;99218.28;;;1.76;100.00
51239;BME280;38154;47.548;18.828;2022-12-29T05:04:57;99218.59;;;1.84;100.00
51239;BME280;38154;47.548;18.828;2022-12-29T05:07:23;99215.41;;;1.90;100.00
51239;BME280;38154;47.548;18.828;2022-12-29T05:09:49;99220.00;;;1.77;100.00
51239;BME280;38154;47.548;18.828;2022-12-29T05:12:14;99220.22;;;1.43;100.00
51239;BME280;38154;47.548;18.828;2022-12-29T05:14:40;99206.88;;;1.32;100.00
51239;BME280;38154;47.548;18.828;2022-12-29T05:17:06;99209.09;;;0.87;100.00
51239;BME280;38154;47.548;18.828;2022-12-29T05:19:32;99203.63;;;0.79;100.00
51239;BME280;38154;47.548;18.828;2022-12-29T05:21:58;99195.47;;;0.52;100.00
51239;BME280;38154;47.548;18.828;2022-12-29T05:24:24;99197.25;;;0.17;100.00
51239;BME280;38154;47.548;18.828;2022-12-29T05:26:50;99200.00;;;0.04;100.00
51239;BME280;38154;47.548;18.828;2022-12-29T05:29:16;99204.75;;;-0.21;100.00
51239;BME280;38154;47.548;18.828;2022-12-29T05:31:42;99201.16;;;-0.41;100.00
51239;BME280;38154;47.548;18.828;2022-12-29T05:34:10;99205.25;;;-0.61;100.00
51239;BME280;38154;47.548;18.828;2022-12-29T05:36:36;99209.59;;;-0.76;100.00
51239;BME280;38154;47.548;18.828;2022-12-29T05:39:02;99210.75;;;-0.86;100.00
51239;BME280;38154;47.548;18.828;2022-12-29T05:41:28;99201.31;;;-1.03;100.00
51239;BME280;38154;47.548;18.828;2022-12-29T05:43:54;99190.44;;;-1.16;100.00
51239;BME280;38154;47.548;18.828;2022-12-29T05:46:20;99188.31;;;-1.23;100.00
51239;BME280;38154;47.548;18.828;2022-12-29T05:48:46;99179.47;;;-1.13;100.00
51239;BME280;38154;47.548;18.828;2022-12-29T05:51:12;99175.38;;;-1.09;100.00
51239;BME280;38154;47.548;18.828;2022-12-29T05:53:38;99175.00;;;-0.84;100.00
51239;BME280;38154;47.548;18.828;2022-12-29T05:56:04;99175.12;;;-0.32;100.00
51239;BME280;38154;47.548;18.828;2022-12-29T05:58:30;99182.88;;;0.21;100.00
51239;BME280;38154;47.548;18.828;2022-12-29T06:00:56;99183.47;;;0.69;100.00
51239;BME280;38154;47.548;18.828;2022-12-29T06:03:22;99184.25;;;0.86;100.00
51239;BME280;38154;47.548;18.828;2022-12-29T06:05:47;99184.34;;;0.87;100.00
51239;BME280;38154;47.548;18.828;2022-12-29T06:08:13;99171.09;;;0.98;100.00
51239;BME280;38154;47.548;18.828;2022-12-29T06:10:39;99181.66;;;1.23;100.00
51239;BME280;38154;47.548;18.828;2022-12-29T06:13:05;99178.22;;;1.42;100.00
51239;BME280;38154;47.548;18.828;2022-12-29T06:15:32;99178.16;;;1.60;100.00
51239;BME280;38154;47.548;18.828;2022-12-29T06:17:58;99171.03;;;1.74;100.00
51239;BME280;38154;47.548;18.828;2022-12-29T06:20:24;99182.81;;;1.69;100.00
51239;BME280;38154;47.548;18.828;2022-12-29T06:22:50;99183.78;;;1.52;100.00
51239;BME280;38154;47.548;18.828;2022-12-29T06:25:16;99191.47;;;1.13;100.00
51239;BME280;38154;47.548;18.828;2022-12-29T06:27:42;99192.34;;;0.40;100.00
51239;BME280;38154;47.548;18.828;2022-12-29T06:30:09;99191.53;;;-0.12;100.00
51239;BME280;38154;47.548;18.828;2022-12-29T06:32:35;99194.69;;;-0.34;100.00
51239;BME280;38154;47.548;18.828;2022-12-29T06:35:02;99202.41;;;-0.67;100.00
51239;BME280;38154;47.548;18.828;2022-12-29T06:37:29;99196.31;;;-0.85;100.00
51239;BME280;38154;47.548;18.828;2022-12-29T06:39:54;99184.53;;;-0.98;100.00
51239;BME280;38154;47.548;18.828;2022-12-29T06:42:20;99189.78;;;-1.12;100.00
51239;BME280;38154;47.548;18.828;2022-12-29T06:44:46;99189.25;;;-1.21;100.00
51239;BME280;38154;47.548;18.828;2022-12-29T06:47:12;99198.53;;;-1.23;100.00
51239;BME280;38154;47.548;18.828;2022-12-29T06:49:38;99200.09;;;-1.10;100.00
51239;BME280;38154;47.548;18.828;2022-12-29T06:52:04;99200.00;;;-1.12;100.00
51239;BME280;38154;47.548;18.828;2022-12-29T06:54:30;99198.16;;;-1.14;100.00
51239;BME280;38154;47.548;18.828;2022-12-29T06:56:56;99209.53;;;-1.09;100.00
51239;BME280;38154;47.548;18.828;2022-12-29T06:59:23;99206.28;;;-0.57;100.00
51239;BME280;38154;47.548;18.828;2022-12-29T07:01:50;99200.75;;;-0.15;100.00
51239;BME280;38154;47.548;18.828;2022-12-29T07:04:16;99204.00;;;0.33;100.00
51239;BME280;38154;47.548;18.828;2022-12-29T07:06:42;99217.94;;;0.74;100.00
51239;BME280;38154;47.548;18.828;2022-12-29T07:09:08;99218.13;;;0.79;100.00
51239;BME280;38154;47.548;18.828;2022-12-29T07:11:35;99222.13;;;0.54;100.00
51239;BME280;38154;47.548;18.828;2022-12-29T07:14:01;99221.78;;;0.30;100.00
51239;BME280;38154;47.548;18.828;2022-12-29T07:16:27;99213.94;;;0.09;100.00
51239;BME280;38154;47.548;18.828;2022-12-29T07:18:55;99218.63;;;0.17;100.00
51239;BME280;38154;47.548;18.828;2022-12-29T07:21:21;99220.16;;;0.14;100.00
51239;BME280;38154;47.548;18.828;2022-12-29T07:23:47;99220.12;;;0.48;100.00
51239;BME280;38154;47.548;18.828;2022-12-29T07:26:14;99214.78;;;0.80;100.00
51239;BME280;38154;47.548;18.828;2022-12-29T07:28:43;99216.75;;;1.42;100.00
51239;BME280;38154;47.548;18.828;2022-12-29T07:31:17;99203.41;;;2.10;100.00
51239;BME280;38154;47.548;18.828;2022-12-29T07:33:44;99205.56;;;2.64;100.00
51239;BME280;38154;47.548;18.828;2022-12-29T07:36:11;99214.94;;;3.05;100.00
51239;BME280;38154;47.548;18.828;2022-12-29T07:38:38;99204.56;;;3.50;100.00
51239;BME280;38154;47.548;18.828;2022-12-29T07:41:04;99221.47;;;3.90;100.00
51239;BME280;38154;47.548;18.828;2022-12-29T07:43:30;99220.81;;;4.22;100.00
51239;BME280;38154;47.548;18.828;2022-12-29T07:45:56;99222.13;;;4.62;100.00
51239;BME280;38154;47.548;18.828;2022-12-29T07:48:21;99223.59;;;4.81;100.00
51239;BME280;38154;47.548;18.828;2022-12-29T07:50:48;99231.44;;;3.81;100.00
51239;BME280;38154;47.548;18.828;2022-12-29T07:53:14;99237.72;;;3.41;100.00
51239;BME280;38154;47.548;18.828;2022-12-29T07:55:40;99249.88;;;3.21;100.00
51239;BME280;38154;47.548;18.828;2022-12-29T07:58:06;99251.28;;;3.36;100.00
51239;BME280;38154;47.548;18.828;2022-12-29T08:00:33;99252.97;;;3.35;100.00
51239;BME280;38154;47.548;18.828;2022-12-29T08:02:59;99247.16;;;2.95;100.00
51239;BME280;38154;47.548;18.828;2022-12-29T08:05:25;99250.88;;;2.81;100.00
51239;BME280;38154;47.548;18.828;2022-12-29T08:07:51;99244.53;;;2.94;100.00
51239;BME280;38154;47.548;18.828;2022-12-29T08:10:17;99244.66;;;3.42;100.00
51239;BME280;38154;47.548;18.828;2022-12-29T08:12:43;99240.38;;;3.43;100.00
51239;BME280;38154;47.548;18.828;2022-12-29T08:15:11;99234.28;;;3.41;100.00
51239;BME280;38154;47.548;18.828;2022-12-29T08:17:37;99227.59;;;3.46;100.00
51239;BME280;38154;47.548;18.828;2022-12-29T08:20:04;99233.06;;;3.55;100.00
51239;BME280;38154;47.548;18.828;2022-12-29T08:22:30;99236.31;;;3.74;100.00
51239;BME280;38154;47.548;18.828;2022-12-29T08:24:56;99236.16;;;3.93;100.00
51239;BME280;38154;47.548;18.828;2022-12-29T08:27:22;99230.87;;;4.40;100.00
51239;BME280;38154;47.548;18.828;2022-12-29T08:29:48;99233.91;;;5.08;97.73
51239;BME280;38154;47.548;18.828;2022-12-29T08:32:14;99228.25;;;5.81;93.61
51239;BME280;38154;47.548;18.828;2022-12-29T08:34:39;99226.34;;;7.12;85.50
51239;BME280;38154;47.548;18.828;2022-12-29T08:37:05;99218.34;;;8.32;81.55
51239;BME280;38154;47.548;18.828;2022-12-29T08:39:31;99220.28;;;9.61;75.36
51239;BME280;38154;47.548;18.828;2022-12-29T08:41:57;99215.16;;;9.68;72.27
51239;BME280;38154;47.548;18.828;2022-12-29T08:44:23;99217.47;;;10.21;68.59
51239;BME280;38154;47.548;18.828;2022-12-29T08:46:49;99216.87;;;10.48;68.22
51239;BME280;38154;47.548;18.828;2022-12-29T08:49:15;99225.00;;;10.84;66.79
51239;BME280;38154;47.548;18.828;2022-12-29T08:51:41;99232.59;;;10.59;68.69
51239;BME280;38154;47.548;18.828;2022-12-29T08:54:07;99224.44;;;11.34;65.34
51239;BME280;38154;47.548;18.828;2022-12-29T08:56:32;99232.47;;;11.73;64.36
51239;BME280;38154;47.548;18.828;2022-12-29T08:58:58;99218.69;;;12.14;62.30
51239;BME280;38154;47.548;18.828;2022-12-29T09:01:24;99218.56;;;11.81;62.61
51239;BME280;38154;47.548;18.828;2022-12-29T09:03:50;99219.59;;;10.57;66.60
51239;BME280;38154;47.548;18.828;2022-12-29T09:06:17;99216.72;;;9.55;71.29
51239;BME280;38154;47.548;18.828;2022-12-29T09:08:43;99206.75;;;8.62;77.93
51239;BME280;38154;47.548;18.828;2022-12-29T09:11:13;99199.44;;;7.92;83.99
51239;BME280;38154;47.548;18.828;2022-12-29T09:13:39;99195.47;;;8.63;82.51
51239;BME280;38154;47.548;18.828;2022-12-29T09:16:05;99200.28;;;9.57;76.51
51239;BME280;38154;47.548;18.828;2022-12-29T09:18:32;99196.69;;;10.29;72.49
51239;BME280;38154;47.548;18.828;2022-12-29T09:21:02;99198.31;;;11.25;68.14
51239;BME280;38154;47.548;18.828;2022-12-29T09:23:28;99188.00;;;11.57;65.69
51239;BME280;38154;47.548;18.828;2022-12-29T09:25:54;99184.69;;;12.21;64.23
51239;BME280;38154;47.548;18.828;2022-12-29T09:28:21;99176.88;;;12.48;61.59
51239;BME280;38154;47.548;18.828;2022-12-29T09:30:47;99175.12;;;12.33;61.59
51239;BME280;38154;47.548;18.828;2022-12-29T09:33:13;99178.63;;;12.89;59.59
51239;BME280;38154;47.548;18.828;2022-12-29T09:35:50;99178.59;;;12.93;59.39
51239;BME280;38154;47.548;18.828;2022-12-29T09:38:17;99182.12;;;12.71;59.25
51239;BME280;38154;47.548;18.828;2022-12-29T09:40:45;99181.22;;;12.72;58.83
51239;BME280;38154;47.548;18.828;2022-12-29T09:46:39;99189.06;;;12.96;58.39
51239;BME280;38154;47.548;18.828;2022-12-29T09:48:43;99189.88;;;13.22;57.51
51239;BME280;38154;47.548;18.828;2022-12-29T09:51:16;99191.69;;;12.83;58.24
51239;BME280;38154;47.548;18.828;2022-12-29T09:56:39;99178.63;;;12.83;58.29
51239;BME280;38154;47.548;18.828;2022-12-29T09:59:15;99179.50;;;12.60;59.23
51239;BME280;38154;47.548;18.828;2022-12-29T10:01:55;99175.06;;;13.17;59.36
51239;BME280;38154;47.548;18.828;2022-12-29T10:04:26;99176.91;;;12.54;59.62
51239;BME280;38154;47.548;18.828;2022-12-29T10:06:57;99174.22;;;12.03;61.56
51239;BME280;38154;47.548;18.828;2022-12-29T10:21:08;99153.91;;;8.63;78.10
51239;BME280;38154;47.548;18.828;2022-12-29T10:23:46;99150.06;;;8.41;83.12
51239;BME280;38154;47.548;18.828;2022-12-29T10:26:20;99147.84;;;8.12;86.55
51239;BME280;38154;47.548;18.828;2022-12-29T10:28:54;99145.81;;;7.94;89.17
51239;BME280;38154;47.548;18.828;2022-12-29T10:31:25;99141.41;;;7.88;90.87
51239;BME280;38154;47.548;18.828;2022-12-29T10:34:00;99144.69;;;7.79;90.91
51239;BME280;38154;47.548;18.828;2022-12-29T10:36:39;99138.72;;;7.85;91.34
51239;BME280;38154;47.548;18.828;2022-12-29T10:42:03;99140.50;;;7.42;94.56
51239;BME280;38154;47.548;18.828;2022-12-29T10:44:34;99138.56;;;7.30;95.92
51239;BME280;38154;47.548;18.828;2022-12-29T10:47:04;99138.44;;;7.25;96.62
51239;BME280;38154;47.548;18.828;2022-12-29T10:49:37;99135.78;;;7.21;96.62
51239;BME280;38154;47.548;18.828;2022-12-29T10:52:04;99137.06;;;6.99;98.43
51239;BME280;38154;47.548;18.828;2022-12-29T10:54:39;99136.34;;;7.06;98.10
51239;BME280;38154;47.548;18.828;2022-12-29T10:57:19;99134.22;;;6.88;99.65
51239;BME280;38154;47.548;18.828;2022-12-29T10:59:48;99135.09;;;6.88;100.00
51239;BME280;38154;47.548;18.828;2022-12-29T11:02:35;99124.63;;;6.84;99.59
51239;BME280;38154;47.548;18.828;2022-12-29T11:07:59;99140.84;;;6.74;100.00
51239;BME280;38154;47.548;18.828;2022-12-29T11:13:04;99119.34;;;6.79;98.26
51239;BME280;38154;47.548;18.828;2022-12-29T11:15:47;99112.31;;;6.74;98.50
51239;BME280;38154;47.548;18.828;2022-12-29T11:20:44;99116.75;;;6.41;100.00
51239;BME280;38154;47.548;18.828;2022-12-29T11:23:23;99102.75;;;6.33;100.00
51239;BME280;38154;47.548;18.828;2022-12-29T11:26:25;99104.16;;;6.19;100.00
51239;BME280;38154;47.548;18.828;2022-12-29T11:31:44;99100.28;;;6.38;100.00
51239;BME280;38154;47.548;18.828;2022-12-29T11:34:34;99101.09;;;6.37;100.00
51239;BME280;38154;47.548;18.828;2022-12-29T11:37:11;99092.34;;;6.31;100.00
51239;BME280;38154;47.548;18.828;2022-12-29T11:42:15;99085.63;;;6.40;100.00
51239;BME280;38154;47.548;18.828;2022-12-29T11:44:46;99085.91;;;6.50;100.00
51239;BME280;38154;47.548;18.828;2022-12-29T11:47:30;99085.16;;;6.56;100.00
51239;BME280;38154;47.548;18.828;2022-12-29T11:50:03;99089.34;;;6.51;100.00
51239;BME280;38154;47.548;18.828;2022-12-29T11:52:32;99094.31;;;6.42;100.00
51239;BME280;38154;47.548;18.828;2022-12-29T11:55:03;99095.75;;;6.29;100.00
51239;BME280;38154;47.548;18.828;2022-12-29T11:57:32;99102.66;;;6.28;100.00
51239;BME280;38154;47.548;18.828;2022-12-29T12:00:03;99098.19;;;6.23;100.00
51239;BME280;38154;47.548;18.828;2022-12-29T12:08:14;99086.84;;;6.18;100.00
51239;BME280;38154;47.548;18.828;2022-12-29T12:13:38;99072.69;;;6.03;100.00
51239;BME280;38154;47.548;18.828;2022-12-29T12:16:11;99069.63;;;5.85;100.00
51239;BME280;38154;47.548;18.828;2022-12-29T12:21:20;99062.72;;;5.84;100.00
51239;BME280;38154;47.548;18.828;2022-12-29T12:26:32;99049.97;;;5.93;100.00
51239;BME280;38154;47.548;18.828;2022-12-29T12:29:14;99041.53;;;5.99;100.00
51239;BME280;38154;47.548;18.828;2022-12-29T12:34:16;99040.72;;;6.01;100.00
51239;BME280;38154;47.548;18.828;2022-12-29T12:48:36;99046.53;;;5.92;100.00
51239;BME280;38154;47.548;18.828;2022-12-29T12:56:46;99044.41;;;5.76;100.00
51239;BME280;38154;47.548;18.828;2022-12-29T13:02:37;99047.78;;;5.73;100.00
51239;BME280;38154;47.548;18.828;2022-12-29T13:10:50;99036.03;;;5.51;100.00
51239;BME280;38154;47.548;18.828;2022-12-29T13:16:34;99049.53;;;5.41;100.00
51239;BME280;38154;47.548;18.828;2022-12-29T13:24:15;99053.94;;;5.12;100.00
51239;BME280;38154;47.548;18.828;2022-12-29T13:26:47;99060.78;;;5.10;100.00
51239;BME280;38154;47.548;18.828;2022-12-29T13:29:35;99059.94;;;5.11;100.00
51239;BME280;38154;47.548;18.828;2022-12-29T13:32:14;99061.66;;;5.10;100.00
51239;BME280;38154;47.548;18.828;2022-12-29T13:37:27;99052.75;;;5.00;100.00
51239;BME280;38154;47.548;18.828;2022-12-29T13:39:59;99058.78;;;4.99;100.00
51239;BME280;38154;47.548;18.828;2022-12-29T13:42:27;99065.50;;;4.94;100.00
51239;BME280;38154;47.548;18.828;2022-12-29T13:45:06;99073.28;;;4.96;100.00
51239;BME280;38154;47.548;18.828;2022-12-29T13:47:55;99069.84;;;4.95;100.00
51239;BME280;38154;47.548;18.828;2022-12-29T13:50:27;99076.63;;;4.92;100.00
51239;BME280;38154;47.548;18.828;2022-12-29T13:56:07;99069.47;;;4.81;100.00
51239;BME280;38154;47.548;18.828;2022-12-29T13:58:59;99076.09;;;4.73;100.00
51239;BME280;38154;47.548;18.828;2022-12-29T14:01:50;99078.50;;;4.67;100.00
51239;BME280;38154;47.548;18.828;2022-12-29T14:04:26;99072.22;;;4.59;100.00
51239;BME280;38154;47.548;18.828;2022-12-29T14:07:05;99064.31;;;4.53;100.00
51239;BME280;38154;47.548;18.828;2022-12-29T14:09:51;99064.22;;;4.50;100.00
51239;BME280;38154;47.548;18.828;2022-12-29T14:12:38;99057.13;;;4.44;100.00
51239;BME280;38154;47.548;18.828;2022-12-29T14:15:15;99057.91;;;4.40;100.00
51239;BME280;38154;47.548;18.828;2022-12-29T14:18:01;99056.87;;;4.35;100.00
51239;BME280;38154;47.548;18.828;2022-12-29T14:20:27;99060.19;;;4.31;100.00
51239;BME280;38154;47.548;18.828;2022-12-29T14:25:58;99070.19;;;4.20;100.00
51239;BME280;38154;47.548;18.828;2022-12-29T14:28:30;99064.00;;;4.15;100.00
51239;BME280;38154;47.548;18.828;2022-12-29T14:31:01;99065.72;;;4.14;100.00
51239;BME280;38154;47.548;18.828;2022-12-29T14:33:30;99075.03;;;4.09;100.00
51239;BME280;38154;47.548;18.828;2022-12-29T14:36:33;99079.88;;;4.00;100.00
51239;BME280;38154;47.548;18.828;2022-12-29T14:38:51;99075.12;;;3.86;100.00
51239;BME280;38154;47.548;18.828;2022-12-29T14:41:27;99068.22;;;3.85;100.00
51239;BME280;38154;47.548;18.828;2022-12-29T14:43:58;99071.19;;;3.70;100.00
51239;BME280;38154;47.548;18.828;2022-12-29T14:46:54;99062.66;;;3.73;100.00
51239;BME280;38154;47.548;18.828;2022-12-29T14:49:26;99067.66;;;3.68;100.00
51239;BME280;38154;47.548;18.828;2022-12-29T14:52:18;99065.72;;;3.61;100.00
51239;BME280;38154;47.548;18.828;2022-12-29T14:54:49;99070.22;;;3.68;100.00
51239;BME280;38154;47.548;18.828;2022-12-29T14:59:47;99077.34;;;3.50;100.00
51239;BME280;38154;47.548;18.828;2022-12-29T15:02:19;99074.00;;;3.27;100.00
51239;BME280;38154;47.548;18.828;2022-12-29T15:04:47;99078.87;;;2.95;100.00
51239;BME280;38154;47.548;18.828;2022-12-29T15:07:14;99069.00;;;2.60;100.00
51239;BME280;38154;47.548;18.828;2022-12-29T15:09:47;99066.66;;;2.44;100.00
51239;BME280;38154;47.548;18.828;2022-12-29T15:12:32;99073.09;;;2.33;100.00
51239;BME280;38154;47.548;18.828;2022-12-29T15:15:01;99073.56;;;2.22;100.00